sensor_id;sensor_type;location;lat;lon;timestamp;P1;durP1;ratioP1;P2;durP2;ratioP2
13611;SDS011;6877;51.436;6.774;2023-09-30T00:01:03;16.35;;;5.95;;
13611;SDS011;6877;51.436;6.774;2023-09-30T00:03:39;18.08;;;6.55;;
13611;SDS011;6877;51.436;6.774;2023-09-30T00:06:07;19.08;;;5.97;;
13611;SDS011;6877;51.436;6.774;2023-09-30T00:08:38;10.25;;;5.03;;
13611;SDS011;6877;51.436;6.774;2023-09-30T00:11:05;13.60;;;6.00;;
13611;SDS011;6877;51.436;6.774;2023-09-30T00:13:35;14.93;;;5.70;;
13611;SDS011;6877;51.436;6.774;2023-09-30T00:16:07;12.07;;;5.45;;
13611;SDS011;6877;51.436;6.774;2023-09-30T00:18:33;11.18;;;6.72;;
13611;SDS011;6877;51.436;6.774;2023-09-30T00:21:00;15.07;;;5.45;;
13611;SDS011;6877;51.436;6.774;2023-09-30T00:23:26;13.43;;;5.68;;
13611;SDS011;6877;51.436;6.774;2023-09-30T00:25:52;15.45;;;5.18;;
13611;SDS011;6877;51.436;6.774;2023-09-30T00:28:19;13.77;;;5.38;;
13611;SDS011;6877;51.436;6.774;2023-09-30T00:30:50;16.88;;;4.47;;
13611;SDS011;6877;51.436;6.774;2023-09-30T00:33:17;10.90;;;4.78;;
13611;SDS011;6877;51.436;6.774;2023-09-30T00:35:49;10.15;;;4.32;;
13611;SDS011;6877;51.436;6.774;2023-09-30T00:38:16;12.85;;;5.93;;
13611;SDS011;6877;51.436;6.774;2023-09-30T00:40:50;14.13;;;5.38;;
13611;SDS011;6877;51.436;6.774;2023-09-30T00:43:22;12.57;;;4.60;;
13611;SDS011;6877;51.436;6.774;2023-09-30T00:45:48;17.58;;;6.30;;
13611;SDS011;6877;51.436;6.774;2023-09-30T00:48:23;15.35;;;6.47;;
13611;SDS011;6877;51.436;6.774;2023-09-30T00:50:54;14.30;;;5.43;;
13611;SDS011;6877;51.436;6.774;2023-09-30T00:53:27;19.17;;;6.60;;
13611;SDS011;6877;51.436;6.774;2023-09-30T00:55:55;15.05;;;5.40;;
13611;SDS011;6877;51.436;6.774;2023-09-30T00:58:27;18.73;;;6.28;;
13611;SDS011;6877;51.436;6.774;2023-09-30T01:01:00;16.45;;;6.20;;
13611;SDS011;6877;51.436;6.774;2023-09-30T01:03:26;18.85;;;6.55;;
13611;SDS011;6877;51.436;6.774;2023-09-30T01:05:57;14.18;;;6.05;;
13611;SDS011;6877;51.436;6.774;2023-09-30T01:08:24;17.80;;;6.60;;
13611;SDS011;6877;51.436;6.774;2023-09-30T01:10:56;18.63;;;6.53;;
13611;SDS011;6877;51.436;6.774;2023-09-30T01:13:34;11.45;;;5.90;;
13611;SDS011;6877;51.436;6.774;2023-09-30T01:16:09;16.85;;;6.50;;
13611;SDS011;6877;51.436;6.774;2023-09-30T01:18:36;12.88;;;6.18;;
13611;SDS011;6877;51.436;6.774;2023-09-30T01:21:04;13.98;;;5.85;;
13611;SDS011;6877;51.436;6.774;2023-09-30T01:23:32;16.73;;;7.20;;
13611;SDS011;6877;51.436;6.774;2023-09-30T01:26:03;16.83;;;5.90;;
13611;SDS011;6877;51.436;6.774;2023-09-30T01:28:30;13.35;;;6.28;;
13611;SDS011;6877;51.436;6.774;2023-09-30T01:30:57;17.10;;;5.80;;
13611;SDS011;6877;51.436;6.774;2023-09-30T01:33:24;16.63;;;5.95;;
13611;SDS011;6877;51.436;6.774;2023-09-30T01:35:51;13.63;;;6.45;;
13611;SDS011;6877;51.436;6.774;2023-09-30T01:38:22;21.10;;;8.05;;
13611;SDS011;6877;51.436;6.774;2023-09-30T01:40:54;18.67;;;6.85;;
13611;SDS011;6877;51.436;6.774;2023-09-30T01:43:25;21.73;;;7.78;;
13611;SDS011;6877;51.436;6.774;2023-09-30T01:45:52;19.33;;;7.60;;
13611;SDS011;6877;51.436;6.774;2023-09-30T01:48:23;12.75;;;6.28;;
13611;SDS011;6877;51.436;6.774;2023-09-30T01:50:50;16.67;;;7.65;;
13611;SDS011;6877;51.436;6.774;2023-09-30T01:53:16;12.23;;;5.38;;
13611;SDS011;6877;51.436;6.774;2023-09-30T01:55:48;22.83;;;6.05;;
13611;SDS011;6877;51.436;6.774;2023-09-30T01:58:14;13.82;;;7.10;;
13611;SDS011;6877;51.436;6.774;2023-09-30T02:00:41;17.92;;;7.13;;
13611;SDS011;6877;51.436;6.774;2023-09-30T02:03:07;18.08;;;7.68;;
13611;SDS011;6877;51.436;6.774;2023-09-30T02:05:33;21.00;;;8.32;;
13611;SDS011;6877;51.436;6.774;2023-09-30T02:08:05;23.88;;;6.38;;
13611;SDS011;6877;51.436;6.774;2023-09-30T02:10:32;15.45;;;6.72;;
13611;SDS011;6877;51.436;6.774;2023-09-30T02:13:01;21.33;;;7.55;;
13611;SDS011;6877;51.436;6.774;2023-09-30T02:15:33;26.45;;;8.30;;
13611;SDS011;6877;51.436;6.774;2023-09-30T02:18:05;23.67;;;7.50;;
13611;SDS011;6877;51.436;6.774;2023-09-30T02:20:36;15.32;;;7.00;;
13611;SDS011;6877;51.436;6.774;2023-09-30T02:23:11;15.48;;;6.97;;
13611;SDS011;6877;51.436;6.774;2023-09-30T02:25:43;17.20;;;7.82;;
13611;SDS011;6877;51.436;6.774;2023-09-30T02:28:14;18.52;;;6.90;;
13611;SDS011;6877;51.436;6.774;2023-09-30T02:30:46;15.38;;;6.88;;
13611;SDS011;6877;51.436;6.774;2023-09-30T02:33:17;15.13;;;6.93;;
13611;SDS011;6877;51.436;6.774;2023-09-30T02:35:49;15.32;;;6.82;;
13611;SDS011;6877;51.436;6.774;2023-09-30T02:38:16;16.40;;;7.00;;
13611;SDS011;6877;51.436;6.774;2023-09-30T02:40:44;14.15;;;7.03;;
13611;SDS011;6877;51.436;6.774;2023-09-30T02:43:12;24.85;;;7.00;;
13611;SDS011;6877;51.436;6.774;2023-09-30T02:45:39;19.58;;;7.22;;
13611;SDS011;6877;51.436;6.774;2023-09-30T02:48:11;16.92;;;7.38;;
13611;SDS011;6877;51.436;6.774;2023-09-30T02:50:37;17.80;;;6.97;;
13611;SDS011;6877;51.436;6.774;2023-09-30T02:53:10;13.45;;;6.13;;
13611;SDS011;6877;51.436;6.774;2023-09-30T02:55:44;15.63;;;6.80;;
13611;SDS011;6877;51.436;6.774;2023-09-30T02:58:16;17.20;;;6.68;;
13611;SDS011;6877;51.436;6.774;2023-09-30T03:00:47;15.98;;;7.13;;
13611;SDS011;6877;51.436;6.774;2023-09-30T03:03:20;28.35;;;7.55;;
13611;SDS011;6877;51.436;6.774;2023-09-30T03:05:52;17.65;;;7.72;;
13611;SDS011;6877;51.436;6.774;2023-09-30T03:08:20;20.77;;;7.18;;
13611;SDS011;6877;51.436;6.774;2023-09-30T03:10:48;18.38;;;6.97;;
13611;SDS011;6877;51.436;6.774;2023-09-30T03:13:19;17.40;;;6.60;;
13611;SDS011;6877;51.436;6.774;2023-09-30T03:15:47;21.52;;;6.03;;
13611;SDS011;6877;51.436;6.774;2023-09-30T03:18:23;24.35;;;7.63;;
13611;SDS011;6877;51.436;6.774;2023-09-30T03:21:00;19.80;;;7.70;;
13611;SDS011;6877;51.436;6.774;2023-09-30T03:23:27;23.95;;;6.40;;
13611;SDS011;6877;51.436;6.774;2023-09-30T03:25:57;13.65;;;6.03;;
13611;SDS011;6877;51.436;6.774;2023-09-30T03:28:24;15.70;;;6.40;;
13611;SDS011;6877;51.436;6.774;2023-09-30T03:30:56;17.42;;;6.82;;
13611;SDS011;6877;51.436;6.774;2023-09-30T03:33:27;16.75;;;6.00;;
13611;SDS011;6877;51.436;6.774;2023-09-30T03:35:54;20.13;;;8.98;;
13611;SDS011;6877;51.436;6.774;2023-09-30T03:38:26;14.30;;;5.38;;
13611;SDS011;6877;51.436;6.774;2023-09-30T03:40:52;17.90;;;6.50;;
13611;SDS011;6877;51.436;6.774;2023-09-30T03:43:25;14.60;;;6.13;;
13611;SDS011;6877;51.436;6.774;2023-09-30T03:45:57;13.23;;;6.07;;
13611;SDS011;6877;51.436;6.774;2023-09-30T03:48:29;26.20;;;7.40;;
13611;SDS011;6877;51.436;6.774;2023-09-30T03:51:07;15.30;;;5.93;;
13611;SDS011;6877;51.436;6.774;2023-09-30T03:53:34;18.08;;;6.65;;
13611;SDS011;6877;51.436;6.774;2023-09-30T03:56:07;21.63;;;8.00;;
13611;SDS011;6877;51.436;6.774;2023-09-30T03:58:34;16.40;;;6.03;;
13611;SDS011;6877;51.436;6.774;2023-09-30T04:01:05;20.67;;;7.68;;
13611;SDS011;6877;51.436;6.774;2023-09-30T04:03:37;17.20;;;7.22;;
13611;SDS011;6877;51.436;6.774;2023-09-30T04:06:07;14.88;;;6.20;;
13611;SDS011;6877;51.436;6.774;2023-09-30T04:08:33;23.02;;;7.72;;
13611;SDS011;6877;51.436;6.774;2023-09-30T04:11:05;17.17;;;6.95;;
13611;SDS011;6877;51.436;6.774;2023-09-30T04:13:32;20.95;;;6.78;;
13611;SDS011;6877;51.436;6.774;2023-09-30T04:16:04;17.08;;;6.65;;
13611;SDS011;6877;51.436;6.774;2023-09-30T04:18:35;27.27;;;7.40;;
13611;SDS011;6877;51.436;6.774;2023-09-30T04:21:07;20.83;;;6.88;;
13611;SDS011;6877;51.436;6.774;2023-09-30T04:23:38;23.70;;;8.35;;
13611;SDS011;6877;51.436;6.774;2023-09-30T04:26:05;21.20;;;7.85;;
13611;SDS011;6877;51.436;6.774;2023-09-30T04:28:31;17.65;;;6.97;;
13611;SDS011;6877;51.436;6.774;2023-09-30T04:31:03;17.38;;;6.72;;
13611;SDS011;6877;51.436;6.774;2023-09-30T04:33:34;16.80;;;7.00;;
13611;SDS011;6877;51.436;6.774;2023-09-30T04:36:06;16.70;;;7.10;;
13611;SDS011;6877;51.436;6.774;2023-09-30T04:38:35;22.88;;;9.27;;
13611;SDS011;6877;51.436;6.774;2023-09-30T04:41:08;16.85;;;6.95;;
13611;SDS011;6877;51.436;6.774;2023-09-30T04:43:37;19.98;;;8.13;;
13611;SDS011;6877;51.436;6.774;2023-09-30T04:46:10;18.85;;;8.07;;
13611;SDS011;6877;51.436;6.774;2023-09-30T04:48:43;24.15;;;8.90;;
13611;SDS011;6877;51.436;6.774;2023-09-30T04:51:19;18.25;;;7.05;;
13611;SDS011;6877;51.436;6.774;2023-09-30T04:53:46;26.10;;;9.70;;
13611;SDS011;6877;51.436;6.774;2023-09-30T04:56:12;23.10;;;7.65;;
13611;SDS011;6877;51.436;6.774;2023-09-30T04:58:39;25.02;;;9.18;;
13611;SDS011;6877;51.436;6.774;2023-09-30T05:01:05;16.48;;;7.93;;
13611;SDS011;6877;51.436;6.774;2023-09-30T05:03:40;21.13;;;8.45;;
13611;SDS011;6877;51.436;6.774;2023-09-30T05:06:06;14.52;;;7.22;;
13611;SDS011;6877;51.436;6.774;2023-09-30T05:08:34;20.30;;;7.93;;
13611;SDS011;6877;51.436;6.774;2023-09-30T05:11:00;15.57;;;7.10;;
13611;SDS011;6877;51.436;6.774;2023-09-30T05:13:26;19.52;;;7.72;;
13611;SDS011;6877;51.436;6.774;2023-09-30T05:15:58;35.97;;;9.90;;
13611;SDS011;6877;51.436;6.774;2023-09-30T05:18:25;17.90;;;8.40;;
13611;SDS011;6877;51.436;6.774;2023-09-30T05:20:56;20.40;;;8.13;;
13611;SDS011;6877;51.436;6.774;2023-09-30T05:23:22;22.02;;;9.85;;
13611;SDS011;6877;51.436;6.774;2023-09-30T05:25:50;22.92;;;8.48;;
13611;SDS011;6877;51.436;6.774;2023-09-30T05:28:21;19.10;;;8.50;;
13611;SDS011;6877;51.436;6.774;2023-09-30T05:30:52;19.42;;;8.35;;
13611;SDS011;6877;51.436;6.774;2023-09-30T05:33:24;23.95;;;9.57;;
13611;SDS011;6877;51.436;6.774;2023-09-30T05:35:51;26.33;;;9.20;;
13611;SDS011;6877;51.436;6.774;2023-09-30T05:38:23;23.75;;;9.30;;
13611;SDS011;6877;51.436;6.774;2023-09-30T05:40:50;35.38;;;9.15;;
13611;SDS011;6877;51.436;6.774;2023-09-30T05:43:22;30.55;;;8.95;;
13611;SDS011;6877;51.436;6.774;2023-09-30T05:45:53;28.65;;;10.05;;
13611;SDS011;6877;51.436;6.774;2023-09-30T05:48:25;29.90;;;9.13;;
13611;SDS011;6877;51.436;6.774;2023-09-30T05:50:52;19.45;;;8.27;;
13611;SDS011;6877;51.436;6.774;2023-09-30T05:53:23;25.23;;;8.98;;
13611;SDS011;6877;51.436;6.774;2023-09-30T05:55:51;23.75;;;9.68;;
13611;SDS011;6877;51.436;6.774;2023-09-30T05:58:17;25.50;;;9.70;;
13611;SDS011;6877;51.436;6.774;2023-09-30T06:00:44;23.38;;;10.15;;
13611;SDS011;6877;51.436;6.774;2023-09-30T06:03:10;25.67;;;9.05;;
13611;SDS011;6877;51.436;6.774;2023-09-30T06:05:40;21.95;;;9.63;;
13611;SDS011;6877;51.436;6.774;2023-09-30T06:08:07;18.50;;;8.82;;
13611;SDS011;6877;51.436;6.774;2023-09-30T06:10:42;19.80;;;8.38;;
13611;SDS011;6877;51.436;6.774;2023-09-30T06:13:14;21.23;;;11.00;;
13611;SDS011;6877;51.436;6.774;2023-09-30T06:15:46;22.38;;;9.32;;
13611;SDS011;6877;51.436;6.774;2023-09-30T06:18:18;28.38;;;10.13;;
13611;SDS011;6877;51.436;6.774;2023-09-30T06:20:50;23.30;;;8.88;;
13611;SDS011;6877;51.436;6.774;2023-09-30T06:23:21;23.30;;;9.77;;
13611;SDS011;6877;51.436;6.774;2023-09-30T06:25:53;32.15;;;11.68;;
13611;SDS011;6877;51.436;6.774;2023-09-30T06:28:24;36.00;;;11.57;;
13611;SDS011;6877;51.436;6.774;2023-09-30T06:30:52;23.10;;;11.32;;
13611;SDS011;6877;51.436;6.774;2023-09-30T06:33:18;33.03;;;12.10;;
13611;SDS011;6877;51.436;6.774;2023-09-30T06:35:51;33.00;;;11.68;;
13611;SDS011;6877;51.436;6.774;2023-09-30T06:38:20;23.98;;;10.15;;
13611;SDS011;6877;51.436;6.774;2023-09-30T06:40:52;29.98;;;11.13;;
13611;SDS011;6877;51.436;6.774;2023-09-30T06:43:25;25.98;;;10.75;;
13611;SDS011;6877;51.436;6.774;2023-09-30T06:45:51;27.63;;;10.50;;
13611;SDS011;6877;51.436;6.774;2023-09-30T06:48:17;23.65;;;10.25;;
13611;SDS011;6877;51.436;6.774;2023-09-30T06:50:45;23.70;;;10.20;;
13611;SDS011;6877;51.436;6.774;2023-09-30T06:53:19;21.85;;;9.07;;
13611;SDS011;6877;51.436;6.774;2023-09-30T06:55:52;31.40;;;10.32;;
13611;SDS011;6877;51.436;6.774;2023-09-30T06:58:24;24.45;;;10.20;;
13611;SDS011;6877;51.436;6.774;2023-09-30T07:00:50;28.08;;;10.70;;
13611;SDS011;6877;51.436;6.774;2023-09-30T07:03:19;25.05;;;10.23;;
13611;SDS011;6877;51.436;6.774;2023-09-30T07:05:51;30.65;;;12.02;;
13611;SDS011;6877;51.436;6.774;2023-09-30T07:08:17;24.25;;;11.25;;
13611;SDS011;6877;51.436;6.774;2023-09-30T07:10:49;28.23;;;11.05;;
13611;SDS011;6877;51.436;6.774;2023-09-30T07:13:19;27.75;;;12.63;;
13611;SDS011;6877;51.436;6.774;2023-09-30T07:15:45;22.90;;;10.45;;
13611;SDS011;6877;51.436;6.774;2023-09-30T07:18:17;30.40;;;11.65;;
13611;SDS011;6877;51.436;6.774;2023-09-30T07:20:49;25.35;;;11.98;;
13611;SDS011;6877;51.436;6.774;2023-09-30T07:23:20;28.85;;;12.13;;
13611;SDS011;6877;51.436;6.774;2023-09-30T07:25:52;23.88;;;11.55;;
13611;SDS011;6877;51.436;6.774;2023-09-30T07:28:24;26.63;;;11.10;;
13611;SDS011;6877;51.436;6.774;2023-09-30T07:30:55;28.95;;;14.20;;
13611;SDS011;6877;51.436;6.774;2023-09-30T07:33:21;23.67;;;10.73;;
13611;SDS011;6877;51.436;6.774;2023-09-30T07:35:48;23.80;;;10.40;;
13611;SDS011;6877;51.436;6.774;2023-09-30T07:38:15;15.48;;;8.85;;
13611;SDS011;6877;51.436;6.774;2023-09-30T07:40:42;27.55;;;11.80;;
13611;SDS011;6877;51.436;6.774;2023-09-30T07:43:09;17.92;;;8.55;;
13611;SDS011;6877;51.436;6.774;2023-09-30T07:45:41;18.85;;;8.23;;
13611;SDS011;6877;51.436;6.774;2023-09-30T07:48:09;27.00;;;8.00;;
13611;SDS011;6877;51.436;6.774;2023-09-30T07:50:41;13.93;;;6.13;;
13611;SDS011;6877;51.436;6.774;2023-09-30T07:53:08;15.20;;;7.00;;
13611;SDS011;6877;51.436;6.774;2023-09-30T07:55:40;15.45;;;7.30;;
13611;SDS011;6877;51.436;6.774;2023-09-30T07:58:06;12.45;;;5.90;;
13611;SDS011;6877;51.436;6.774;2023-09-30T08:00:34;16.77;;;6.63;;
13611;SDS011;6877;51.436;6.774;2023-09-30T08:03:00;19.65;;;8.43;;
13611;SDS011;6877;51.436;6.774;2023-09-30T08:05:32;17.27;;;9.05;;
13611;SDS011;6877;51.436;6.774;2023-09-30T08:08:04;21.95;;;10.25;;
13611;SDS011;6877;51.436;6.774;2023-09-30T08:10:37;19.63;;;9.93;;
13611;SDS011;6877;51.436;6.774;2023-09-30T08:13:08;15.70;;;7.20;;
13611;SDS011;6877;51.436;6.774;2023-09-30T08:15:40;15.15;;;6.35;;
13611;SDS011;6877;51.436;6.774;2023-09-30T08:18:12;13.73;;;6.60;;
13611;SDS011;6877;51.436;6.774;2023-09-30T08:20:38;14.05;;;6.82;;
13611;SDS011;6877;51.436;6.774;2023-09-30T08:23:09;13.73;;;5.50;;
13611;SDS011;6877;51.436;6.774;2023-09-30T08:25:42;8.00;;;4.50;;
13611;SDS011;6877;51.436;6.774;2023-09-30T08:28:14;14.07;;;6.95;;
13611;SDS011;6877;51.436;6.774;2023-09-30T08:30:40;15.50;;;6.10;;
13611;SDS011;6877;51.436;6.774;2023-09-30T08:33:12;12.52;;;5.57;;
13611;SDS011;6877;51.436;6.774;2023-09-30T08:35:43;12.88;;;6.20;;
13611;SDS011;6877;51.436;6.774;2023-09-30T08:38:10;12.48;;;5.95;;
13611;SDS011;6877;51.436;6.774;2023-09-30T08:40:41;13.07;;;6.40;;
13611;SDS011;6877;51.436;6.774;2023-09-30T08:43:15;14.38;;;6.97;;
13611;SDS011;6877;51.436;6.774;2023-09-30T08:45:49;7.57;;;4.72;;
13611;SDS011;6877;51.436;6.774;2023-09-30T08:48:27;16.00;;;8.27;;
13611;SDS011;6877;51.436;6.774;2023-09-30T08:51:01;11.65;;;8.05;;
13611;SDS011;6877;51.436;6.774;2023-09-30T08:53:33;17.42;;;8.13;;
13611;SDS011;6877;51.436;6.774;2023-09-30T08:56:05;14.98;;;6.90;;
13611;SDS011;6877;51.436;6.774;2023-09-30T08:58:41;11.90;;;6.20;;
13611;SDS011;6877;51.436;6.774;2023-09-30T09:01:12;13.82;;;6.45;;
13611;SDS011;6877;51.436;6.774;2023-09-30T09:03:39;10.00;;;5.63;;
13611;SDS011;6877;51.436;6.774;2023-09-30T09:06:06;9.93;;;5.55;;
13611;SDS011;6877;51.436;6.774;2023-09-30T09:08:33;16.20;;;6.88;;
13611;SDS011;6877;51.436;6.774;2023-09-30T09:11:04;14.50;;;6.50;;
13611;SDS011;6877;51.436;6.774;2023-09-30T09:13:45;17.70;;;8.15;;
13611;SDS011;6877;51.436;6.774;2023-09-30T09:16:11;10.60;;;5.20;;
13611;SDS011;6877;51.436;6.774;2023-09-30T09:18:43;8.82;;;5.72;;
13611;SDS011;6877;51.436;6.774;2023-09-30T09:21:17;21.08;;;7.15;;
13611;SDS011;6877;51.436;6.774;2023-09-30T09:23:54;12.23;;;7.13;;
13611;SDS011;6877;51.436;6.774;2023-09-30T09:26:26;13.88;;;7.22;;
13611;SDS011;6877;51.436;6.774;2023-09-30T09:28:58;16.00;;;8.02;;
13611;SDS011;6877;51.436;6.774;2023-09-30T09:31:35;13.00;;;7.45;;
13611;SDS011;6877;51.436;6.774;2023-09-30T09:34:02;14.73;;;6.90;;
13611;SDS011;6877;51.436;6.774;2023-09-30T09:36:43;12.60;;;6.03;;
13611;SDS011;6877;51.436;6.774;2023-09-30T09:39:10;18.00;;;7.40;;
13611;SDS011;6877;51.436;6.774;2023-09-30T09:41:53;14.90;;;8.63;;
13611;SDS011;6877;51.436;6.774;2023-09-30T09:44:22;21.73;;;9.02;;
13611;SDS011;6877;51.436;6.774;2023-09-30T09:46:54;13.32;;;7.15;;
13611;SDS011;6877;51.436;6.774;2023-09-30T09:49:28;15.65;;;7.90;;
13611;SDS011;6877;51.436;6.774;2023-09-30T09:52:02;16.92;;;8.25;;
13611;SDS011;6877;51.436;6.774;2023-09-30T09:54:34;17.90;;;8.57;;
13611;SDS011;6877;51.436;6.774;2023-09-30T09:57:08;17.20;;;7.47;;
13611;SDS011;6877;51.436;6.774;2023-09-30T09:59:41;18.30;;;8.38;;
13611;SDS011;6877;51.436;6.774;2023-09-30T10:02:12;12.48;;;6.32;;
13611;SDS011;6877;51.436;6.774;2023-09-30T10:04:45;11.60;;;6.88;;
13611;SDS011;6877;51.436;6.774;2023-09-30T10:07:16;15.93;;;8.15;;
13611;SDS011;6877;51.436;6.774;2023-09-30T10:10:06;16.30;;;7.57;;
13611;SDS011;6877;51.436;6.774;2023-09-30T10:12:42;12.70;;;6.88;;
13611;SDS011;6877;51.436;6.774;2023-09-30T10:18:06;13.07;;;6.40;;
13611;SDS011;6877;51.436;6.774;2023-09-30T10:20:42;14.68;;;6.05;;
13611;SDS011;6877;51.436;6.774;2023-09-30T10:25:44;7.25;;;3.83;;
13611;SDS011;6877;51.436;6.774;2023-09-30T10:36:35;9.43;;;3.63;;
13611;SDS011;6877;51.436;6.774;2023-09-30T10:39:11;8.90;;;4.15;;
13611;SDS011;6877;51.436;6.774;2023-09-30T10:41:49;7.18;;;3.13;;
13611;SDS011;6877;51.436;6.774;2023-09-30T10:47:35;7.20;;;2.72;;
13611;SDS011;6877;51.436;6.774;2023-09-30T10:49:58;5.05;;;2.13;;
13611;SDS011;6877;51.436;6.774;2023-09-30T10:52:25;4.80;;;2.53;;
13611;SDS011;6877;51.436;6.774;2023-09-30T10:55:03;7.90;;;3.63;;
13611;SDS011;6877;51.436;6.774;2023-09-30T10:57:31;11.75;;;3.50;;
13611;SDS011;6877;51.436;6.774;2023-09-30T11:00:10;6.25;;;3.00;;
13611;SDS011;6877;51.436;6.774;2023-09-30T11:02:49;5.35;;;3.35;;
13611;SDS011;6877;51.436;6.774;2023-09-30T11:05:24;6.38;;;2.60;;
13611;SDS011;6877;51.436;6.774;2023-09-30T11:07:57;4.65;;;2.13;;
13611;SDS011;6877;51.436;6.774;2023-09-30T11:10:30;5.90;;;2.78;;
13611;SDS011;6877;51.436;6.774;2023-09-30T11:12:58;5.38;;;2.28;;
13611;SDS011;6877;51.436;6.774;2023-09-30T11:15:25;4.22;;;2.33;;
13611;SDS011;6877;51.436;6.774;2023-09-30T11:18:12;5.15;;;2.97;;
13611;SDS011;6877;51.436;6.774;2023-09-30T11:20:44;7.68;;;3.15;;
13611;SDS011;6877;51.436;6.774;2023-09-30T11:23:11;5.15;;;2.92;;
13611;SDS011;6877;51.436;6.774;2023-09-30T11:25:38;7.25;;;3.55;;
13611;SDS011;6877;51.436;6.774;2023-09-30T11:28:17;11.48;;;3.50;;
13611;SDS011;6877;51.436;6.774;2023-09-30T11:31:00;5.88;;;2.97;;
13611;SDS011;6877;51.436;6.774;2023-09-30T11:33:48;12.55;;;4.00;;
13611;SDS011;6877;51.436;6.774;2023-09-30T11:36:15;6.03;;;3.08;;
13611;SDS011;6877;51.436;6.774;2023-09-30T11:38:45;8.07;;;3.22;;
13611;SDS011;6877;51.436;6.774;2023-09-30T11:41:18;7.85;;;3.65;;
13611;SDS011;6877;51.436;6.774;2023-09-30T11:43:58;5.18;;;3.00;;
13611;SDS011;6877;51.436;6.774;2023-09-30T11:46:48;11.88;;;4.68;;
13611;SDS011;6877;51.436;6.774;2023-09-30T11:49:33;9.38;;;3.42;;
13611;SDS011;6877;51.436;6.774;2023-09-30T11:52:02;5.28;;;3.25;;
13611;SDS011;6877;51.436;6.774;2023-09-30T11:54:44;7.55;;;3.28;;
13611;SDS011;6877;51.436;6.774;2023-09-30T11:57:12;8.32;;;3.97;;
13611;SDS011;6877;51.436;6.774;2023-09-30T11:59:46;9.07;;;3.85;;
13611;SDS011;6877;51.436;6.774;2023-09-30T12:02:14;6.30;;;2.88;;
13611;SDS011;6877;51.436;6.774;2023-09-30T12:04:48;7.22;;;3.90;;
13611;SDS011;6877;51.436;6.774;2023-09-30T12:07:19;9.10;;;3.90;;
13611;SDS011;6877;51.436;6.774;2023-09-30T12:09:46;13.60;;;4.72;;
13611;SDS011;6877;51.436;6.774;2023-09-30T12:12:17;11.20;;;3.95;;
13611;SDS011;6877;51.436;6.774;2023-09-30T12:14:49;8.82;;;3.88;;
13611;SDS011;6877;51.436;6.774;2023-09-30T12:17:16;7.72;;;3.38;;
13611;SDS011;6877;51.436;6.774;2023-09-30T12:19:49;6.68;;;3.00;;
13611;SDS011;6877;51.436;6.774;2023-09-30T12:22:21;10.48;;;3.45;;
13611;SDS011;6877;51.436;6.774;2023-09-30T12:24:53;9.48;;;4.10;;
13611;SDS011;6877;51.436;6.774;2023-09-30T12:27:24;9.02;;;3.30;;
13611;SDS011;6877;51.436;6.774;2023-09-30T12:29:51;15.02;;;4.78;;
13611;SDS011;6877;51.436;6.774;2023-09-30T12:32:18;13.88;;;4.05;;
13611;SDS011;6877;51.436;6.774;2023-09-30T12:34:49;6.00;;;3.25;;
13611;SDS011;6877;51.436;6.774;2023-09-30T12:37:16;6.85;;;3.13;;
13611;SDS011;6877;51.436;6.774;2023-09-30T12:39:43;9.38;;;4.57;;
13611;SDS011;6877;51.436;6.774;2023-09-30T12:42:16;6.20;;;4.10;;
13611;SDS011;6877;51.436;6.774;2023-09-30T12:44:47;7.50;;;3.70;;
13611;SDS011;6877;51.436;6.774;2023-09-30T12:47:13;12.45;;;3.45;;
13611;SDS011;6877;51.436;6.774;2023-09-30T12:49:40;6.97;;;3.60;;
13611;SDS011;6877;51.436;6.774;2023-09-30T12:52:11;10.07;;;3.22;;
13611;SDS011;6877;51.436;6.774;2023-09-30T12:54:38;6.95;;;3.38;;
13611;SDS011;6877;51.436;6.774;2023-09-30T12:57:05;17.30;;;4.70;;
13611;SDS011;6877;51.436;6.774;2023-09-30T12:59:33;5.85;;;3.35;;
13611;SDS011;6877;51.436;6.774;2023-09-30T13:02:00;8.63;;;3.35;;
13611;SDS011;6877;51.436;6.774;2023-09-30T13:04:31;5.72;;;3.75;;
13611;SDS011;6877;51.436;6.774;2023-09-30T13:07:03;6.43;;;3.50;;
13611;SDS011;6877;51.436;6.774;2023-09-30T13:09:30;6.65;;;2.85;;
13611;SDS011;6877;51.436;6.774;2023-09-30T13:11:56;4.13;;;2.63;;
13611;SDS011;6877;51.436;6.774;2023-09-30T13:14:31;7.70;;;2.90;;
13611;SDS011;6877;51.436;6.774;2023-09-30T13:16:57;8.68;;;2.95;;
13611;SDS011;6877;51.436;6.774;2023-09-30T13:19:25;4.25;;;2.70;;
13611;SDS011;6877;51.436;6.774;2023-09-30T13:21:51;7.60;;;2.90;;
13611;SDS011;6877;51.436;6.774;2023-09-30T13:24:24;6.53;;;2.97;;
13611;SDS011;6877;51.436;6.774;2023-09-30T13:26:50;4.30;;;2.67;;
13611;SDS011;6877;51.436;6.774;2023-09-30T13:29:18;5.88;;;3.13;;
13611;SDS011;6877;51.436;6.774;2023-09-30T13:31:45;5.50;;;2.75;;
13611;SDS011;6877;51.436;6.774;2023-09-30T13:34:16;7.13;;;3.00;;
13611;SDS011;6877;51.436;6.774;2023-09-30T13:36:47;8.52;;;2.88;;
13611;SDS011;6877;51.436;6.774;2023-09-30T13:39:19;6.72;;;2.90;;
13611;SDS011;6877;51.436;6.774;2023-09-30T13:41:52;8.18;;;2.72;;
13611;SDS011;6877;51.436;6.774;2023-09-30T13:44:23;11.68;;;3.22;;
13611;SDS011;6877;51.436;6.774;2023-09-30T13:46:49;7.88;;;3.10;;
13611;SDS011;6877;51.436;6.774;2023-09-30T13:49:16;17.08;;;4.63;;
13611;SDS011;6877;51.436;6.774;2023-09-30T13:51:43;6.38;;;3.53;;
13611;SDS011;6877;51.436;6.774;2023-09-30T13:54:10;4.97;;;3.33;;
13611;SDS011;6877;51.436;6.774;2023-09-30T13:56:36;6.30;;;3.17;;
13611;SDS011;6877;51.436;6.774;2023-09-30T13:59:08;7.78;;;3.50;;
13611;SDS011;6877;51.436;6.774;2023-09-30T14:01:39;10.18;;;3.10;;
13611;SDS011;6877;51.436;6.774;2023-09-30T14:04:12;6.03;;;3.45;;
13611;SDS011;6877;51.436;6.774;2023-09-30T14:06:39;9.85;;;3.63;;
13611;SDS011;6877;51.436;6.774;2023-09-30T14:09:06;6.22;;;2.80;;
13611;SDS011;6877;51.436;6.774;2023-09-30T14:11:41;8.15;;;3.08;;
13611;SDS011;6877;51.436;6.774;2023-09-30T14:14:08;6.68;;;3.67;;
13611;SDS011;6877;51.436;6.774;2023-09-30T14:16:40;6.05;;;3.25;;
13611;SDS011;6877;51.436;6.774;2023-09-30T14:19:07;6.20;;;3.55;;
13611;SDS011;6877;51.436;6.774;2023-09-30T14:21:33;9.82;;;4.53;;
13611;SDS011;6877;51.436;6.774;2023-09-30T14:24:00;10.18;;;4.10;;
13611;SDS011;6877;51.436;6.774;2023-09-30T14:26:28;6.38;;;3.35;;
13611;SDS011;6877;51.436;6.774;2023-09-30T14:28:59;7.68;;;3.30;;
13611;SDS011;6877;51.436;6.774;2023-09-30T14:31:31;8.98;;;3.88;;
13611;SDS011;6877;51.436;6.774;2023-09-30T14:33:58;11.13;;;4.30;;
13611;SDS011;6877;51.436;6.774;2023-09-30T14:36:29;17.63;;;5.32;;
13611;SDS011;6877;51.436;6.774;2023-09-30T14:38:55;9.93;;;5.20;;
13611;SDS011;6877;51.436;6.774;2023-09-30T14:41:27;9.02;;;4.45;;
13611;SDS011;6877;51.436;6.774;2023-09-30T14:43:59;11.85;;;4.45;;
13611;SDS011;6877;51.436;6.774;2023-09-30T14:46:30;11.93;;;4.72;;
13611;SDS011;6877;51.436;6.774;2023-09-30T14:48:57;7.55;;;4.40;;
13611;SDS011;6877;51.436;6.774;2023-09-30T14:51:28;6.60;;;3.78;;
13611;SDS011;6877;51.436;6.774;2023-09-30T14:53:59;7.53;;;4.50;;
13611;SDS011;6877;51.436;6.774;2023-09-30T14:56:26;9.63;;;4.28;;
13611;SDS011;6877;51.436;6.774;2023-09-30T14:58:58;8.40;;;3.88;;
13611;SDS011;6877;51.436;6.774;2023-09-30T15:01:29;8.57;;;4.35;;
13611;SDS011;6877;51.436;6.774;2023-09-30T15:04:00;7.78;;;3.67;;
13611;SDS011;6877;51.436;6.774;2023-09-30T15:06:32;12.13;;;5.20;;
13611;SDS011;6877;51.436;6.774;2023-09-30T15:09:00;10.38;;;5.78;;
13611;SDS011;6877;51.436;6.774;2023-09-30T15:11:33;12.13;;;5.85;;
13611;SDS011;6877;51.436;6.774;2023-09-30T15:14:04;13.55;;;5.30;;
13611;SDS011;6877;51.436;6.774;2023-09-30T15:16:36;7.95;;;5.15;;
13611;SDS011;6877;51.436;6.774;2023-09-30T15:19:07;9.23;;;4.97;;
13611;SDS011;6877;51.436;6.774;2023-09-30T15:21:39;7.95;;;4.55;;
13611;SDS011;6877;51.436;6.774;2023-09-30T15:24:11;8.80;;;4.32;;
13611;SDS011;6877;51.436;6.774;2023-09-30T15:26:43;8.48;;;4.75;;